KDXX

Lac Qui Parle County Airport

Madison, Minnesota, USA
METAR KDXX 221735Z AUTO 11005KT 10SM CLR 26/16 A3000 RMK AO2
Observed Flight Rules
May-22 @ 17:35 UTC (14 minutes ago) Visual Flight Rules
Wind Visibility Clouds
110° at 5 knots 10 miles
  • Clear skies
Temperatures Readings
Current 26°C / 79°F
Dewpoint 16°C / 61°F
Humidity 54%
Altimeter 30" Hg
Pressure 1016 hPa
Elevation 330
METAR KDXX 221735Z AUTO 11005KT 10SM CLR 26/16 A3000 RMK AO2
Observed Flight Rules
May-22 @ 17:35 UTC
(14 minutes ago)
VFR
Wind Visibility
110° at 5 knots 10 miles
Clouds
  • Clear skies
Temperature Dewpoint
26°C / 79°F 16°C / 61°F
Humidity Altimeter Pressure
54% 30" Hg 1016 hPa